createdAt,value
2023-05-24T01:36:12.990Z,21.70
2023-05-24T01:39:38.268Z,21.80
2023-05-24T01:43:02.865Z,21.80
2023-05-24T01:46:40.083Z,21.80
2023-05-24T01:49:40.728Z,21.70
2023-05-24T01:53:26.426Z,21.70
2023-05-24T01:56:35.089Z,21.70
2023-05-24T01:59:39.303Z,21.70
2023-05-24T02:02:35.787Z,21.80
2023-05-24T02:05:39.072Z,21.80
2023-05-24T02:08:31.329Z,21.70
2023-05-24T02:11:36.725Z,21.70
2023-05-24T02:14:30.821Z,21.70
2023-05-24T02:17:37.230Z,21.70
2023-05-24T02:20:38.683Z,21.70
2023-05-24T02:23:39.037Z,21.60
2023-05-24T02:26:47.719Z,21.60
2023-05-24T02:29:45.856Z,21.60
2023-05-24T02:32:35.606Z,21.60
2023-05-24T02:35:26.079Z,21.60
2023-05-24T02:38:30.492Z,21.60
2023-05-24T02:41:22.554Z,21.50
2023-05-24T02:44:32.745Z,21.50
2023-05-24T02:47:33.415Z,21.50
2023-05-24T02:50:25.431Z,21.50
2023-05-24T02:53:57.129Z,21.50
2023-05-24T02:56:48.937Z,21.40
2023-05-24T03:00:06.826Z,21.40
2023-05-24T03:03:55.747Z,21.40
2023-05-24T03:06:24.456Z,21.40
2023-05-24T03:09:47.374Z,21.40
2023-05-24T03:12:46.669Z,21.40
2023-05-24T03:15:42.391Z,21.40
2023-05-24T03:18:50.958Z,21.40
2023-05-24T03:21:46.224Z,21.40
2023-05-24T03:24:34.820Z,21.40
2023-05-24T03:27:32.263Z,21.40
2023-05-24T03:30:33.219Z,21.40
2023-05-24T03:33:28.643Z,21.30
2023-05-24T03:36:40.214Z,21.30
2023-05-24T03:39:59.376Z,21.10
2023-05-24T03:46:54.661Z,21.00
2023-05-24T03:50:57.622Z,20.90
2023-05-24T03:53:43.684Z,20.90
2023-05-24T03:56:43.951Z,20.90
2023-05-24T04:00:54.166Z,20.90
2023-05-24T04:03:45.290Z,20.90
2023-05-24T04:06:51.762Z,20.90
2023-05-24T04:14:05.805Z,20.90
2023-05-24T04:15:53.761Z,20.90
2023-05-24T04:20:32.247Z,20.80
2023-05-24T04:23:39.836Z,20.80
2023-05-24T04:33:21.510Z,20.80
2023-05-24T04:36:51.592Z,20.80
2023-05-24T04:39:55.318Z,20.80
2023-05-24T04:46:33.238Z,20.70
2023-05-24T04:49:57.268Z,20.70
2023-05-24T04:54:02.733Z,20.70
2023-05-24T04:57:15.553Z,20.70
2023-05-24T05:00:19.113Z,20.70
2023-05-24T05:03:47.743Z,20.70
2023-05-24T05:06:44.958Z,20.70
2023-05-24T05:10:18.789Z,20.70
2023-05-24T05:13:30.932Z,20.60
2023-05-24T05:16:27.020Z,20.60
2023-05-24T05:20:25.487Z,20.60
2023-05-24T05:32:43.319Z,20.60
2023-05-24T05:35:29.338Z,20.60
2023-05-24T05:45:42.910Z,20.50
2023-05-24T05:48:31.466Z,20.50
2023-05-24T05:51:39.940Z,20.60
2023-05-24T06:03:47.276Z,20.70
2023-05-24T06:07:04.174Z,20.70
2023-05-24T06:09:58.178Z,20.80
2023-05-24T06:12:49.508Z,20.80
2023-05-24T06:20:45.384Z,20.70
2023-05-24T06:23:32.659Z,20.80
2023-05-24T06:26:21.452Z,20.80
2023-05-24T06:29:08.575Z,20.80
2023-05-24T06:32:50.927Z,20.80
2023-05-24T06:35:37.121Z,20.80
2023-05-24T06:38:28.046Z,20.90
2023-05-24T06:41:14.757Z,20.90
2023-05-24T06:44:06.522Z,20.90
2023-05-24T06:46:53.252Z,20.90
2023-05-24T06:49:39.299Z,20.90
2023-05-24T06:52:26.050Z,20.90
2023-05-24T06:55:14.581Z,20.90
2023-05-24T06:58:04.356Z,20.90
2023-05-24T07:00:51.715Z,20.90
2023-05-24T07:03:37.566Z,20.90
2023-05-24T07:06:28.807Z,20.90
2023-05-24T07:09:16.226Z,20.90
2023-05-24T07:12:02.883Z,20.90
2023-05-24T07:14:49.758Z,20.90
2023-05-24T07:17:36.437Z,21.00
2023-05-24T07:20:23.410Z,21.00
2023-05-24T07:23:09.406Z,21.10
2023-05-24T07:25:55.856Z,21.10
2023-05-24T07:28:45.993Z,21.10
2023-05-24T07:31:34.815Z,21.20
2023-05-24T07:34:31.755Z,21.10
2023-05-24T07:37:17.877Z,21.10
2023-05-24T07:40:05.606Z,21.10
2023-05-24T07:42:51.725Z,21.00
2023-05-24T07:45:38.259Z,21.00
2023-05-24T07:48:25.491Z,21.00
2023-05-24T07:51:11.697Z,21.00
2023-05-24T07:54:07.680Z,21.00
2023-05-24T07:56:53.845Z,21.00
2023-05-24T07:59:42.972Z,21.00
2023-05-24T08:02:53.402Z,21.10
2023-05-24T08:06:32.341Z,21.20
2023-05-24T08:09:09.025Z,21.20
2023-05-24T08:11:55.320Z,21.20
2023-05-24T08:14:44.153Z,21.20
2023-05-24T08:17:31.871Z,21.20
2023-05-24T08:20:21.052Z,21.20
2023-05-24T08:23:07.198Z,21.20
2023-05-24T08:25:53.713Z,21.30
2023-05-24T08:28:39.730Z,21.30
2023-05-24T08:31:26.524Z,21.30
2023-05-24T08:34:13.461Z,21.40
2023-05-24T08:36:59.342Z,21.40
2023-05-24T08:39:45.817Z,21.50
2023-05-24T08:42:33.048Z,21.50
2023-05-24T08:45:21.941Z,21.50
2023-05-24T08:48:08.491Z,21.50
2023-05-24T08:50:54.891Z,21.50
2023-05-24T08:53:42.360Z,21.50
2023-05-24T08:56:31.701Z,21.50
2023-05-24T08:59:25.437Z,21.50
2023-05-24T09:02:16.205Z,21.50
2023-05-24T09:05:02.434Z,21.50
2023-05-24T09:07:50.217Z,21.50
2023-05-24T09:10:49.425Z,21.50
2023-05-24T09:13:41.241Z,21.50
2023-05-24T09:16:28.239Z,21.50
2023-05-24T09:19:15.352Z,21.50
2023-05-24T09:22:02.768Z,21.50
2023-05-24T09:24:52.313Z,21.50
2023-05-24T09:27:39.127Z,21.50
2023-05-24T09:30:25.311Z,21.50
2023-05-24T09:33:12.810Z,21.50
2023-05-24T09:36:02.214Z,21.50
2023-05-24T09:38:48.592Z,21.50
2023-05-24T09:41:34.094Z,21.50
2023-05-24T09:44:20.001Z,21.60
2023-05-24T09:47:06.970Z,21.60
2023-05-24T09:49:53.160Z,21.60
2023-05-24T09:52:41.505Z,21.60
2023-05-24T09:55:28.005Z,21.60
2023-05-24T09:58:15.908Z,21.60
2023-05-24T10:01:07.530Z,21.60
2023-05-24T10:03:55.876Z,21.60
2023-05-24T10:06:43.135Z,21.60
2023-05-24T10:09:36.810Z,21.60
2023-05-24T10:12:25.586Z,21.70
2023-05-24T10:15:12.590Z,21.70
2023-05-24T10:18:02.233Z,21.80
2023-05-24T10:20:52.492Z,21.80
2023-05-24T10:23:40.998Z,21.80
2023-05-24T10:30:50.250Z,21.80
2023-05-24T10:33:37.710Z,21.70
2023-05-24T10:36:27.114Z,21.80
2023-05-24T10:39:15.474Z,21.80
2023-05-24T10:42:14.559Z,21.80
2023-05-24T10:46:14.213Z,21.70
2023-05-24T10:49:12.548Z,21.70
2023-05-24T10:52:10.655Z,21.70
2023-05-24T10:55:09.922Z,21.70
2023-05-24T10:57:56.943Z,21.70
2023-05-24T11:01:00.470Z,21.80
2023-05-24T11:09:27.311Z,21.80
2023-05-24T11:12:45.686Z,21.80
2023-05-24T11:15:32.268Z,21.90
2023-05-24T11:18:24.009Z,21.90
2023-05-24T11:21:10.780Z,21.90
2023-05-24T11:23:57.612Z,21.90
2023-05-24T11:27:21.295Z,21.90
2023-05-24T11:30:26.153Z,21.90
2023-05-24T11:41:16.080Z,21.90
2023-05-24T11:42:09.616Z,21.90
2023-05-24T11:45:41.310Z,22.00
2023-05-24T11:48:42.081Z,22.00
2023-05-24T11:51:37.696Z,22.00
2023-05-24T11:54:37.450Z,22.00
2023-05-24T11:57:43.767Z,22.00
2023-05-24T12:00:32.113Z,22.00
2023-05-24T12:03:28.386Z,22.00
2023-05-24T12:06:18.687Z,22.00
2023-05-24T12:13:27.125Z,21.90
2023-05-24T12:16:17.580Z,21.90
2023-05-24T12:19:07.406Z,21.80
2023-05-24T12:22:07.269Z,21.80
2023-05-24T12:25:45.122Z,21.80
2023-05-24T12:28:36.588Z,21.80
2023-05-24T12:31:23.128Z,21.80
2023-05-24T12:34:27.822Z,21.80
2023-05-24T12:37:15.204Z,21.80
2023-05-24T12:40:02.115Z,21.80
2023-05-24T12:42:54.868Z,21.80
2023-05-24T12:45:41.186Z,21.80
2023-05-24T12:48:27.214Z,21.70
2023-05-24T12:51:13.374Z,21.80
2023-05-24T12:54:02.078Z,21.70
2023-05-24T12:56:48.342Z,21.70
2023-05-24T12:59:35.221Z,21.70
2023-05-24T13:02:21.384Z,21.70
2023-05-24T13:05:11.048Z,21.70
2023-05-24T13:08:00.592Z,21.70
2023-05-24T13:10:50.942Z,21.70
2023-05-24T13:13:40.945Z,21.70
2023-05-24T13:16:28.343Z,21.70
2023-05-24T13:19:17.760Z,21.70
2023-05-24T13:22:04.424Z,21.70
2023-05-24T13:24:50.340Z,21.70
2023-05-24T13:27:36.440Z,21.70
2023-05-24T13:30:27.874Z,21.70
2023-05-24T13:33:16.112Z,21.70
2023-05-24T13:36:02.963Z,21.70
2023-05-24T13:38:54.328Z,21.70
2023-05-24T13:41:53.062Z,21.70
2023-05-24T13:45:14.940Z,21.70
2023-05-24T14:03:16.851Z,21.60
2023-05-24T14:06:23.998Z,21.60
2023-05-24T14:09:10.449Z,21.60
2023-05-24T14:11:56.998Z,21.70
2023-05-24T14:17:38.771Z,21.70
2023-05-24T14:20:25.975Z,21.70
2023-05-24T14:23:12.208Z,21.70
2023-05-24T14:25:59.518Z,21.70
2023-05-24T14:28:45.530Z,21.70
2023-05-24T14:31:31.760Z,21.70
2023-05-24T14:35:12.597Z,21.70
2023-05-24T14:38:56.637Z,21.80
2023-05-24T14:41:52.540Z,21.80
2023-05-24T14:44:39.125Z,21.80
2023-05-24T14:47:26.826Z,21.80
2023-05-24T14:50:14.489Z,21.80
2023-05-24T14:53:27.365Z,21.80
2023-05-24T14:56:20.949Z,21.90
2023-05-24T14:59:09.603Z,21.90
2023-05-24T15:01:55.888Z,21.90
2023-05-24T15:04:42.376Z,21.90
2023-05-24T15:07:28.589Z,21.90
2023-05-24T15:10:17.700Z,21.90
2023-05-24T15:13:09.671Z,21.90
2023-05-24T15:16:00.839Z,22.00
2023-05-24T15:18:46.931Z,22.00
2023-05-24T15:22:34.124Z,22.10
2023-05-24T15:25:23.846Z,22.10
2023-05-24T15:28:34.295Z,22.10
2023-05-24T15:34:39.147Z,22.10
2023-05-24T15:37:32.836Z,22.10
2023-05-24T15:41:06.514Z,22.10
2023-05-24T15:47:31.035Z,22.20
2023-05-24T15:55:26.242Z,22.10
2023-05-24T16:16:26.029Z,22.00
2023-05-24T16:19:12.908Z,22.10
2023-05-24T16:21:59.051Z,22.00
2023-05-24T16:25:15.346Z,22.00
2023-05-24T16:31:40.216Z,22.00
2023-05-24T17:07:32.921Z,21.80
2023-05-24T17:10:21.751Z,21.80
2023-05-24T17:13:31.426Z,21.80
2023-05-24T17:19:47.655Z,21.80
2023-05-24T17:34:22.489Z,21.70
2023-05-24T17:37:20.113Z,21.70
2023-05-24T17:40:19.850Z,21.70
2023-05-24T18:38:01.450Z,21.40
2023-05-24T18:44:08.195Z,21.40
2023-05-24T18:47:24.494Z,21.40
2023-05-24T18:50:13.452Z,21.40
2023-05-24T18:53:09.867Z,21.40
2023-05-24T18:59:36.680Z,21.40
2023-05-24T19:02:25.252Z,21.40
2023-05-24T19:05:16.508Z,21.40
2023-05-24T19:08:05.860Z,21.40
2023-05-24T19:13:34.963Z,21.40
2023-05-24T19:16:38.826Z,21.30
2023-05-24T19:18:24.043Z,21.30
2023-05-24T19:21:12.717Z,21.30
2023-05-24T19:24:03.898Z,21.30
2023-05-24T19:26:55.868Z,21.30
2023-05-24T19:29:46.814Z,21.30
2023-05-24T19:32:42.400Z,21.30
2023-05-24T19:35:48.787Z,21.40
2023-05-24T19:39:05.687Z,21.30
2023-05-24T19:45:21.009Z,21.40
2023-05-24T19:48:10.643Z,21.40
2023-05-24T19:51:59.190Z,21.30
2023-05-24T19:53:45.976Z,21.40
2023-05-24T19:54:16.156Z,21.40
2023-05-24T19:57:12.927Z,21.40
2023-05-24T19:59:58.923Z,21.30
2023-05-24T20:03:34.732Z,21.30
2023-05-24T20:06:22.652Z,21.20
2023-05-24T20:09:18.831Z,21.20
2023-05-24T20:12:18.436Z,21.20
2023-05-24T20:15:10.125Z,21.10
2023-05-24T20:17:59.663Z,21.10
2023-05-24T20:20:45.964Z,21.10
2023-05-24T20:23:36.447Z,21.10
2023-05-24T20:26:27.739Z,21.10
2023-05-24T20:29:28.857Z,21.10
2023-05-24T20:32:17.335Z,21.10
2023-05-24T20:35:08.541Z,21.00
2023-05-24T20:37:55.208Z,21.00
2023-05-24T20:40:53.583Z,20.90
2023-05-24T20:43:41.792Z,20.90
2023-05-24T20:46:42.392Z,20.90
2023-05-24T20:49:54.877Z,20.80
2023-05-24T20:52:45.685Z,20.80
2023-05-24T20:55:41.979Z,20.70
2023-05-24T20:58:31.802Z,20.70
2023-05-24T21:01:28.418Z,20.70
2023-05-24T21:04:26.215Z,20.60
2023-05-24T21:07:14.753Z,20.60
2023-05-24T21:10:08.080Z,20.60
2023-05-24T21:12:54.423Z,20.60
2023-05-24T21:15:42.472Z,20.50
2023-05-24T21:18:29.662Z,20.40
2023-05-24T21:21:16.986Z,20.50
2023-05-24T21:24:17.174Z,20.40
2023-05-24T21:27:33.816Z,20.40
2023-05-24T21:30:14.221Z,20.40
2023-05-24T21:33:32.733Z,20.40
2023-05-24T21:36:28.676Z,20.40
2023-05-24T21:39:22.024Z,20.30
2023-05-24T21:42:08.554Z,20.30
2023-05-24T21:44:55.124Z,20.30
2023-05-24T21:47:45.328Z,20.30
2023-05-24T21:50:38.656Z,20.30
2023-05-24T21:53:25.701Z,20.30
2023-05-24T21:56:17.940Z,20.30
2023-05-24T21:59:17.001Z,20.20
2023-05-24T22:02:05.276Z,20.30
2023-05-24T22:04:53.930Z,20.20
2023-05-24T22:07:43.762Z,20.20
2023-05-24T22:10:30.042Z,20.20
2023-05-24T22:13:17.779Z,20.20
2023-05-24T22:16:05.929Z,20.20
2023-05-24T22:18:55.580Z,20.20
2023-05-24T22:21:44.512Z,20.20
2023-05-24T22:24:34.560Z,20.20
2023-05-24T22:27:21.393Z,20.20
2023-05-24T22:30:11.886Z,20.20
2023-05-24T22:32:58.461Z,20.20
2023-05-24T22:35:47.551Z,20.20
2023-05-24T22:38:44.440Z,20.20
2023-05-24T22:41:32.942Z,20.20
2023-05-24T22:44:19.411Z,20.20
2023-05-24T22:47:13.037Z,20.20
2023-05-24T22:50:05.954Z,20.20
2023-05-24T22:52:56.869Z,20.20
2023-05-24T22:55:45.736Z,20.20
2023-05-24T22:58:34.294Z,20.20
2023-05-24T23:01:23.398Z,20.20
2023-05-24T23:04:21.372Z,20.20
2023-05-24T23:07:14.566Z,20.20
2023-05-24T23:10:00.678Z,20.20
2023-05-24T23:12:47.477Z,20.20
2023-05-24T23:15:38.482Z,20.30
2023-05-24T23:18:27.639Z,20.20
2023-05-24T23:21:17.011Z,20.20
2023-05-24T23:24:05.325Z,20.20
2023-05-24T23:26:51.522Z,20.20
2023-05-24T23:29:39.275Z,20.20
2023-05-24T23:32:28.537Z,20.20
2023-05-24T23:35:14.583Z,20.20
2023-05-24T23:38:01.027Z,20.20
2023-05-24T23:40:48.362Z,20.20
2023-05-24T23:43:34.434Z,20.20
2023-05-24T23:46:20.801Z,20.20
2023-05-24T23:49:10.549Z,20.20
2023-05-24T23:51:56.628Z,20.20
2023-05-24T23:54:42.854Z,20.20
2023-05-24T23:57:33.036Z,20.10
